Time;durP1;ratioP1;P1;durP2;ratioP2;P2;SDS_P1;SDS_P2;PMS_P1;PMS_P2;Temp;Humidity;BMP_temperature;BMP_pressure;BME280_temperature;BME280_humidity;BME280_pressure;Samples;Min_cycle;Max_cycle;Signal;HPM_P1;HPM_P2
2021/12/01 00:00:07;;;;;;;17.67;9.35;;;;;;;;;;5047238;28;20085;-54
2021/12/01 00:02:33;;;;;;;16.17;8.73;;;;;;;;;;5067769;28;20495;-53
2021/12/01 00:04:59;;;;;;;18.70;9.43;;;;;;;;;;5049130;28;20090;-53
2021/12/01 00:07:25;;;;;;;14.90;8.88;;;;;;;;;;5067314;28;20582;-53
2021/12/01 00:09:52;;;;;;;19.17;9.98;;;;;;;;;;5067375;28;20055;-54
2021/12/01 00:12:19;;;;;;;18.63;9.80;;;;;;;;;;5066711;28;20029;-54
2021/12/01 00:14:45;;;;;;;20.00;10.23;;;;;;;;;;5065893;28;20021;-54
2021/12/01 00:17:12;;;;;;;20.10;10.38;;;;;;;;;;5067378;28;20024;-54
2021/12/01 00:19:39;;;;;;;18.25;9.80;;;;;;;;;;5067879;28;20457;-54
2021/12/01 00:22:05;;;;;;;23.27;11.07;;;;;;;;;;5067800;28;20435;-53
2021/12/01 00:24:31;;;;;;;20.77;9.98;;;;;;;;;;5067061;28;20467;-54
2021/12/01 00:26:57;;;;;;;17.52;8.95;;;;;;;;;;5066063;28;20418;-54
2021/12/01 00:29:23;;;;;;;15.27;8.35;;;;;;;;;;5066615;28;20565;-54
2021/12/01 00:31:49;;;;;;;16.00;8.23;;;;;;;;;;5065938;28;20071;-54
2021/12/01 00:34:16;;;;;;;15.77;8.57;;;;;;;;;;5066610;28;20021;-55
2021/12/01 00:36:42;;;;;;;14.25;7.47;;;;;;;;;;5066891;28;20391;-53
2021/12/01 00:39:08;;;;;;;16.35;8.38;;;;;;;;;;5067402;28;20112;-53
2021/12/01 00:41:34;;;;;;;14.02;7.65;;;;;;;;;;5066913;28;20024;-54
2021/12/01 00:44:00;;;;;;;11.90;6.63;;;;;;;;;;5066767;28;20024;-54
2021/12/01 00:46:39;;;;;;;13.60;6.85;;;;;;;;;;5065496;28;20111;-52
2021/12/01 00:49:05;;;;;;;10.63;6.28;;;;;;;;;;5049338;28;20372;-54
2021/12/01 00:51:31;;;;;;;11.15;6.05;;;;;;;;;;5066298;28;20016;-54
2021/12/01 00:53:57;;;;;;;13.40;7.15;;;;;;;;;;5065724;28;20044;-54
2021/12/01 00:56:23;;;;;;;12.50;7.05;;;;;;;;;;5066034;28;20503;-54
2021/12/01 00:58:51;;;;;;;11.90;7.30;;;;;;;;;;5066641;28;20535;-54
2021/12/01 01:01:17;;;;;;;12.77;7.15;;;;;;;;;;5066133;28;20032;-54
2021/12/01 01:03:43;;;;;;;12.93;7.88;;;;;;;;;;5065368;28;20490;-53
2021/12/01 01:06:09;;;;;;;11.45;6.80;;;;;;;;;;5066320;28;20389;-54
2021/12/01 01:08:35;;;;;;;11.23;6.95;;;;;;;;;;5066775;28;20028;-53
2021/12/01 01:16:25;;;;;;;14.70;7.18;;;;;;;;;;5066126;28;20058;-54
2021/12/01 01:18:56;;;;;;;10.60;6.53;;;;;;;;;;5066068;28;20154;-54
2021/12/01 01:21:23;;;;;;;12.98;6.68;;;;;;;;;;5066003;28;20033;-54
2021/12/01 01:23:50;;;;;;;14.95;8.25;;;;;;;;;;5065497;28;20487;-53
2021/12/01 01:26:17;;;;;;;16.65;8.25;;;;;;;;;;5066033;28;20021;-53
2021/12/01 01:28:44;;;;;;;14.27;7.70;;;;;;;;;;5065572;28;20119;-55
2021/12/01 01:31:11;;;;;;;11.95;6.68;;;;;;;;;;5066648;28;20034;-53
2021/12/01 01:33:37;;;;;;;12.38;6.82;;;;;;;;;;5066645;28;20031;-54
2021/12/01 01:36:03;;;;;;;11.00;6.32;;;;;;;;;;5066023;28;20727;-54
2021/12/01 01:38:31;;;;;;;10.27;5.53;;;;;;;;;;5065062;28;20388;-54
2021/12/01 01:40:58;;;;;;;11.23;5.30;;;;;;;;;;5065967;28;20025;-54
2021/12/01 01:43:24;;;;;;;9.05;5.07;;;;;;;;;;5065923;28;20093;-54
2021/12/01 01:45:54;;;;;;;9.10;5.10;;;;;;;;;;5065671;28;20059;-54
2021/12/01 01:48:31;;;;;;;9.23;5.47;;;;;;;;;;5064110;28;20446;-54
2021/12/01 01:50:58;;;;;;;7.50;4.57;;;;;;;;;;5066035;28;20510;-54
2021/12/01 01:53:25;;;;;;;8.00;4.50;;;;;;;;;;5065924;28;20028;-54
2021/12/01 01:55:53;;;;;;;7.72;4.40;;;;;;;;;;5065814;28;20029;-53
2021/12/01 01:58:21;;;;;;;6.03;4.22;;;;;;;;;;5064416;28;20036;-55
2021/12/01 02:00:51;;;;;;;7.45;4.00;;;;;;;;;;5065861;28;20143;-54
2021/12/01 02:03:18;;;;;;;7.68;4.07;;;;;;;;;;5065439;28;20486;-55
2021/12/01 02:05:44;;;;;;;6.63;3.92;;;;;;;;;;5065033;28;20187;-54
2021/12/01 02:08:27;;;;;;;7.68;3.55;;;;;;;;;;5064961;28;20051;-53
2021/12/01 02:10:54;;;;;;;5.95;3.22;;;;;;;;;;5064749;28;20024;-54
2021/12/01 02:13:21;;;;;;;4.88;3.10;;;;;;;;;;5065125;28;20025;-54
2021/12/01 02:15:48;;;;;;;5.72;3.33;;;;;;;;;;5065399;28;20487;-54
2021/12/01 02:18:14;;;;;;;5.68;3.33;;;;;;;;;;5064467;28;20500;-54
2021/12/01 02:20:40;;;;;;;6.57;3.90;;;;;;;;;;5065163;28;20032;-54
2021/12/01 02:23:06;;;;;;;5.72;3.63;;;;;;;;;;5064750;28;20361;-54
2021/12/01 02:25:33;;;;;;;7.78;3.83;;;;;;;;;;5065243;28;20036;-55
2021/12/01 02:27:59;;;;;;;6.75;4.18;;;;;;;;;;5065633;28;20024;-54
2021/12/01 02:30:25;;;;;;;6.45;4.15;;;;;;;;;;5063982;28;20021;-54
2021/12/01 02:32:52;;;;;;;8.07;4.25;;;;;;;;;;5065179;28;20020;-54
2021/12/01 02:35:18;;;;;;;7.63;4.75;;;;;;;;;;5066068;28;20032;-54
2021/12/01 02:37:44;;;;;;;7.00;4.57;;;;;;;;;;5069038;28;20025;-54
2021/12/01 02:40:10;;;;;;;6.97;4.35;;;;;;;;;;5068571;28;20028;-53
2021/12/01 02:42:37;;;;;;;7.07;4.13;;;;;;;;;;5068668;28;20036;-53
2021/12/01 02:45:03;;;;;;;6.63;4.22;;;;;;;;;;5068643;28;20472;-53
2021/12/01 02:47:29;;;;;;;8.25;4.20;;;;;;;;;;5067614;28;20078;-53
2021/12/01 02:49:56;;;;;;;9.63;4.65;;;;;;;;;;5068682;28;20553;-54
2021/12/01 02:52:22;;;;;;;8.73;4.65;;;;;;;;;;5068662;28;20576;-53
2021/12/01 02:54:49;;;;;;;8.65;4.40;;;;;;;;;;5069082;28;20438;-54
2021/12/01 02:57:15;;;;;;;6.07;3.95;;;;;;;;;;5067922;28;20211;-53
2021/12/01 02:59:41;;;;;;;6.85;4.07;;;;;;;;;;5067483;28;20028;-55
2021/12/01 03:02:09;;;;;;;6.80;4.20;;;;;;;;;;5069136;28;20025;-53
2021/12/01 03:04:36;;;;;;;6.75;3.95;;;;;;;;;;5067753;28;20082;-54
2021/12/01 03:07:03;;;;;;;8.68;4.55;;;;;;;;;;5067156;28;20035;-53
2021/12/01 03:09:29;;;;;;;7.60;4.53;;;;;;;;;;5068192;28;20085;-54
2021/12/01 03:11:56;;;;;;;8.07;4.70;;;;;;;;;;5067686;28;20028;-53
2021/12/01 03:14:22;;;;;;;7.78;4.72;;;;;;;;;;5068498;28;20024;-54
2021/12/01 03:16:50;;;;;;;7.22;4.07;;;;;;;;;;5067598;28;20044;-54
2021/12/01 03:19:16;;;;;;;5.90;3.60;;;;;;;;;;5068261;28;20438;-53
2021/12/01 03:21:43;;;;;;;7.00;3.85;;;;;;;;;;5066846;28;20081;-54
2021/12/01 03:24:09;;;;;;;6.88;4.35;;;;;;;;;;5069163;28;20024;-52
2021/12/01 03:26:37;;;;;;;7.57;4.20;;;;;;;;;;5068413;28;20024;-54
2021/12/01 03:29:05;;;;;;;7.18;4.60;;;;;;;;;;5068290;28;20079;-54
2021/12/01 03:31:31;;;;;;;6.90;4.25;;;;;;;;;;5068246;28;20929;-54
2021/12/01 03:33:57;;;;;;;7.82;4.32;;;;;;;;;;5068084;28;20036;-53
2021/12/01 03:36:23;;;;;;;8.02;4.50;;;;;;;;;;5066893;28;20392;-54
2021/12/01 03:38:49;;;;;;;10.90;4.90;;;;;;;;;;5067962;28;20095;-54
2021/12/01 03:41:15;;;;;;;8.20;4.57;;;;;;;;;;5067625;28;20033;-54
2021/12/01 03:43:41;;;;;;;7.65;4.68;;;;;;;;;;5068060;28;20025;-54
2021/12/01 03:46:07;;;;;;;6.63;4.22;;;;;;;;;;5067934;28;20025;-53
2021/12/01 03:48:33;;;;;;;8.88;5.25;;;;;;;;;;5067338;28;20028;-53
2021/12/01 03:50:59;;;;;;;7.20;3.97;;;;;;;;;;5066900;28;20620;-54
2021/12/01 03:53:25;;;;;;;7.78;4.15;;;;;;;;;;5066719;28;20544;-53
2021/12/01 03:55:52;;;;;;;6.43;3.85;;;;;;;;;;5067946;28;20017;-53
2021/12/01 03:58:19;;;;;;;7.20;3.88;;;;;;;;;;5067590;28;20589;-54
2021/12/01 04:00:46;;;;;;;6.10;3.50;;;;;;;;;;5067741;28;20028;-53
2021/12/01 04:03:12;;;;;;;8.02;3.80;;;;;;;;;;5067626;28;20028;-53
2021/12/01 04:05:38;;;;;;;7.45;4.00;;;;;;;;;;5067047;28;20746;-52
2021/12/01 04:08:06;;;;;;;7.25;3.95;;;;;;;;;;5067641;28;20028;-54
2021/12/01 04:10:32;;;;;;;8.30;4.28;;;;;;;;;;5067308;28;20631;-54
2021/12/01 04:12:58;;;;;;;7.63;4.60;;;;;;;;;;5067792;28;20027;-53
2021/12/01 04:15:24;;;;;;;7.00;4.28;;;;;;;;;;5066404;28;20096;-53
2021/12/01 04:17:50;;;;;;;5.97;3.90;;;;;;;;;;5067292;28;20035;-53
2021/12/01 04:20:17;;;;;;;8.70;4.80;;;;;;;;;;5067474;28;20020;-53
2021/12/01 04:22:47;;;;;;;7.30;4.30;;;;;;;;;;5067662;28;20056;-53
2021/12/01 04:25:13;;;;;;;8.13;4.90;;;;;;;;;;5066067;28;20032;-54
2021/12/01 04:27:39;;;;;;;7.22;4.57;;;;;;;;;;5068021;28;20104;-54
2021/12/01 04:30:08;;;;;;;5.60;3.80;;;;;;;;;;5067043;28;20116;-53
2021/12/01 04:32:34;;;;;;;6.50;4.00;;;;;;;;;;5066905;28;20024;-54
2021/12/01 04:35:01;;;;;;;7.05;4.28;;;;;;;;;;5067358;28;20072;-54
2021/12/01 04:37:27;;;;;;;6.40;3.83;;;;;;;;;;5065939;28;20050;-53
2021/12/01 04:39:53;;;;;;;7.75;4.65;;;;;;;;;;5067120;28;20071;-53
2021/12/01 04:42:20;;;;;;;9.98;5.13;;;;;;;;;;5066606;28;20032;-53
2021/12/01 04:44:46;;;;;;;12.82;4.93;;;;;;;;;;5066891;28;20029;-54
2021/12/01 04:47:14;;;;;;;6.63;3.47;;;;;;;;;;5066672;28;20024;-54
2021/12/01 04:49:40;;;;;;;9.88;4.70;;;;;;;;;;5066526;28;20054;-54
2021/12/01 04:52:07;;;;;;;6.68;4.22;;;;;;;;;;5067322;28;20530;-54
2021/12/01 04:54:34;;;;;;;6.43;4.00;;;;;;;;;;5066812;28;20017;-54
2021/12/01 04:57:01;;;;;;;9.35;4.78;;;;;;;;;;5065931;28;20086;-53
2021/12/01 04:59:27;;;;;;;9.10;4.93;;;;;;;;;;5066500;28;20025;-53
2021/12/01 05:01:55;;;;;;;6.25;3.75;;;;;;;;;;5066716;28;20389;-54
2021/12/01 05:04:22;;;;;;;6.95;3.80;;;;;;;;;;5066450;28;20450;-53
2021/12/01 05:06:48;;;;;;;6.90;3.90;;;;;;;;;;5066157;28;20677;-54
2021/12/01 05:09:14;;;;;;;5.57;3.63;;;;;;;;;;5065093;28;20016;-53
2021/12/01 05:11:40;;;;;;;6.57;3.33;;;;;;;;;;5064319;28;20107;-53
2021/12/01 05:14:07;;;;;;;6.57;3.97;;;;;;;;;;5064662;28;20036;-54
2021/12/01 05:16:35;;;;;;;5.88;3.15;;;;;;;;;;5065808;28;20514;-51
2021/12/01 05:19:01;;;;;;;5.75;3.65;;;;;;;;;;5062709;28;20024;-52
2021/12/01 05:21:27;;;;;;;5.47;3.58;;;;;;;;;;5064066;28;20024;-54
2021/12/01 05:23:53;;;;;;;6.28;3.63;;;;;;;;;;5066285;28;20476;-53
2021/12/01 05:26:19;;;;;;;7.22;4.20;;;;;;;;;;5065422;28;20477;-53
2021/12/01 05:28:46;;;;;;;5.13;3.33;;;;;;;;;;5065439;28;20404;-53
2021/12/01 05:31:12;;;;;;;7.07;3.55;;;;;;;;;;5065981;28;20036;-52
2021/12/01 05:33:39;;;;;;;5.40;3.20;;;;;;;;;;5066018;28;20134;-54
2021/12/01 05:36:05;;;;;;;4.88;3.10;;;;;;;;;;5066492;28;20025;-54
2021/12/01 05:38:31;;;;;;;4.82;3.33;;;;;;;;;;5064171;28;20112;-53
2021/12/01 05:40:57;;;;;;;5.88;3.38;;;;;;;;;;5065747;28;20451;-52
2021/12/01 05:43:23;;;;;;;5.75;3.50;;;;;;;;;;5064858;28;20040;-52
2021/12/01 05:45:49;;;;;;;7.03;3.67;;;;;;;;;;5066026;28;20032;-51
2021/12/01 05:48:16;;;;;;;7.78;3.83;;;;;;;;;;5065641;28;20054;-52
2021/12/01 05:50:42;;;;;;;6.85;3.92;;;;;;;;;;5065861;28;20032;-52
2021/12/01 05:53:09;;;;;;;6.90;3.20;;;;;;;;;;5065832;28;20082;-49
2021/12/01 05:55:36;;;;;;;5.60;3.53;;;;;;;;;;5065054;28;20025;-52
2021/12/01 05:58:02;;;;;;;5.90;3.85;;;;;;;;;;5065890;28;20032;-51
2021/12/01 06:00:28;;;;;;;6.05;3.67;;;;;;;;;;5064633;28;20028;-51
2021/12/01 06:02:54;;;;;;;8.10;3.60;;;;;;;;;;5065877;28;20025;-50
2021/12/01 06:05:21;;;;;;;4.35;3.15;;;;;;;;;;5065044;28;20406;-52
2021/12/01 06:07:48;;;;;;;6.40;3.40;;;;;;;;;;5065924;28;20020;-50
2021/12/01 06:10:15;;;;;;;7.30;3.65;;;;;;;;;;5065426;28;21569;-51
2021/12/01 06:12:42;;;;;;;5.70;3.58;;;;;;;;;;5069390;28;20131;-52
2021/12/01 06:15:10;;;;;;;5.95;4.10;;;;;;;;;;5069439;28;20079;-53
2021/12/01 06:17:36;;;;;;;5.13;3.50;;;;;;;;;;5070041;28;20027;-53
2021/12/01 06:20:04;;;;;;;5.90;3.47;;;;;;;;;;5068731;28;20135;-54
2021/12/01 06:22:30;;;;;;;6.30;3.38;;;;;;;;;;5068640;28;20320;-53
2021/12/01 06:24:56;;;;;;;6.65;3.30;;;;;;;;;;5069073;28;20469;-53
2021/12/01 06:27:22;;;;;;;5.72;3.60;;;;;;;;;;5069553;28;20546;-53
2021/12/01 06:29:49;;;;;;;6.07;3.47;;;;;;;;;;5068818;28;20085;-53
2021/12/01 06:32:16;;;;;;;6.00;3.80;;;;;;;;;;5067825;28;20035;-53
2021/12/01 06:34:42;;;;;;;6.40;3.63;;;;;;;;;;5068662;28;20035;-54
2021/12/01 06:37:08;;;;;;;5.93;3.30;;;;;;;;;;5069970;28;20383;-54
2021/12/01 06:39:34;;;;;;;5.47;3.03;;;;;;;;;;5068007;28;20403;-54
2021/12/01 06:42:00;;;;;;;5.68;3.42;;;;;;;;;;5069091;28;20109;-54
2021/12/01 06:44:30;;;;;;;5.95;3.63;;;;;;;;;;5069053;28;20131;-53
2021/12/01 06:46:56;;;;;;;5.82;3.42;;;;;;;;;;5069169;28;20025;-52
2021/12/01 06:49:22;;;;;;;6.15;4.00;;;;;;;;;;5068015;28;20032;-53
2021/12/01 06:51:48;;;;;;;7.90;4.00;;;;;;;;;;5069393;28;20049;-53
2021/12/01 06:54:14;;;;;;;6.75;3.80;;;;;;;;;;5068552;28;20040;-53
2021/12/01 06:56:40;;;;;;;7.03;3.88;;;;;;;;;;5069341;28;20060;-54
2021/12/01 06:59:07;;;;;;;7.05;3.83;;;;;;;;;;5067346;28;20037;-54
2021/12/01 07:01:33;;;;;;;7.03;3.97;;;;;;;;;;5077318;28;20035;-53
2021/12/01 07:03:59;;;;;;;7.25;3.78;;;;;;;;;;5088724;28;20020;-54
2021/12/01 07:06:25;;;;;;;8.07;3.88;;;;;;;;;;5070395;28;20395;-54
2021/12/01 07:08:51;;;;;;;8.13;4.22;;;;;;;;;;5069667;28;20666;-53
2021/12/01 07:11:17;;;;;;;8.40;4.25;;;;;;;;;;5066023;28;20040;-54
2021/12/01 07:13:43;;;;;;;8.98;4.20;;;;;;;;;;5067399;28;20028;-54
2021/12/01 07:16:09;;;;;;;7.07;4.20;;;;;;;;;;5067802;28;20361;-53
2021/12/01 07:18:35;;;;;;;9.30;4.72;;;;;;;;;;5068092;28;20540;-53
2021/12/01 07:21:03;;;;;;;6.88;4.00;;;;;;;;;;5067329;28;20055;-54
2021/12/01 07:23:30;;;;;;;6.80;3.67;;;;;;;;;;5067814;28;20026;-54
2021/12/01 07:25:56;;;;;;;7.57;3.70;;;;;;;;;;5068470;28;20063;-54
2021/12/01 07:28:22;;;;;;;5.30;3.40;;;;;;;;;;5068965;28;20414;-55
2021/12/01 07:30:48;;;;;;;5.30;3.38;;;;;;;;;;5071351;28;20722;-55
2021/12/01 07:33:14;;;;;;;6.18;3.45;;;;;;;;;;5088226;28;20390;-55
2021/12/01 07:35:40;;;;;;;5.80;3.40;;;;;;;;;;5088335;28;20020;-55
2021/12/01 07:38:06;;;;;;;5.68;3.58;;;;;;;;;;5088310;28;20123;-56
2021/12/01 07:40:32;;;;;;;5.05;3.17;;;;;;;;;;5078997;28;20486;-55
2021/12/01 07:42:59;;;;;;;4.32;2.83;;;;;;;;;;5084554;28;20024;-55
2021/12/01 07:45:27;;;;;;;4.78;3.17;;;;;;;;;;5085011;28;20090;-55
2021/12/01 07:47:53;;;;;;;5.35;3.47;;;;;;;;;;5068756;28;20036;-56
2021/12/01 07:50:19;;;;;;;4.53;2.97;;;;;;;;;;5053953;28;20437;-56
2021/12/01 07:52:45;;;;;;;3.22;1.90;;;;;;;;;;5054265;28;20040;-55
2021/12/01 07:55:11;;;;;;;3.28;2.10;;;;;;;;;;5066895;28;20028;-55
2021/12/01 07:57:38;;;;;;;2.63;1.70;;;;;;;;;;5067919;28;20032;-55
2021/12/01 08:00:05;;;;;;;3.80;2.00;;;;;;;;;;5066369;28;20024;-56
2021/12/01 08:02:31;;;;;;;3.88;1.95;;;;;;;;;;5047897;28;20035;-56
2021/12/01 08:04:58;;;;;;;2.83;1.80;;;;;;;;;;5064338;28;20582;-56
2021/12/01 08:07:27;;;;;;;3.17;2.15;;;;;;;;;;5064906;28;20103;-56
2021/12/01 08:09:53;;;;;;;4.00;2.30;;;;;;;;;;5076232;28;20025;-54
2021/12/01 08:12:20;;;;;;;4.30;2.47;;;;;;;;;;5066910;28;20036;-55
2021/12/01 08:14:46;;;;;;;4.07;2.70;;;;;;;;;;5065946;28;20538;-55
2021/12/01 08:17:12;;;;;;;3.03;2.28;;;;;;;;;;5064336;28;20082;-56
2021/12/01 08:19:38;;;;;;;3.90;2.63;;;;;;;;;;5064912;28;20056;-56
2021/12/01 08:22:06;;;;;;;4.80;2.60;;;;;;;;;;5065553;28;20031;-54
2021/12/01 08:24:32;;;;;;;3.83;2.70;;;;;;;;;;5064624;28;20475;-56
2021/12/01 08:27:00;;;;;;;4.47;2.90;;;;;;;;;;5066498;28;20043;-55
2021/12/01 08:29:26;;;;;;;5.35;3.20;;;;;;;;;;5068395;28;20017;-55
2021/12/01 08:31:52;;;;;;;5.10;3.20;;;;;;;;;;5080684;28;20505;-56
2021/12/01 08:34:18;;;;;;;5.75;3.20;;;;;;;;;;5065499;28;20027;-54
2021/12/01 08:36:46;;;;;;;3.80;2.55;;;;;;;;;;5065007;28;20123;-54
2021/12/01 08:39:12;;;;;;;4.32;2.70;;;;;;;;;;5065478;28;20019;-56
2021/12/01 08:41:40;;;;;;;4.50;2.83;;;;;;;;;;5074365;28;20036;-56
2021/12/01 08:44:06;;;;;;;4.80;3.05;;;;;;;;;;5087254;28;20012;-56
2021/12/01 08:46:32;;;;;;;4.63;2.90;;;;;;;;;;5064855;28;20036;-56
2021/12/01 08:49:00;;;;;;;4.15;2.60;;;;;;;;;;5068209;28;20513;-54
2021/12/01 08:51:26;;;;;;;4.68;2.63;;;;;;;;;;5066114;28;20204;-52
2021/12/01 08:53:52;;;;;;;3.30;2.33;;;;;;;;;;5067029;28;20103;-53
2021/12/01 08:56:19;;;;;;;3.08;2.17;;;;;;;;;;5067066;28;20036;-55
2021/12/01 08:58:45;;;;;;;3.78;2.33;;;;;;;;;;5066713;28;20444;-55
2021/12/01 09:01:11;;;;;;;3.35;2.10;;;;;;;;;;5065365;28;20104;-56
2021/12/01 09:03:37;;;;;;;2.47;1.95;;;;;;;;;;5065404;28;20032;-55
2021/12/01 09:06:03;;;;;;;3.10;2.20;;;;;;;;;;5063066;28;20040;-56
2021/12/01 09:08:29;;;;;;;2.85;1.67;;;;;;;;;;5065769;28;20024;-55
2021/12/01 09:10:57;;;;;;;4.88;2.38;;;;;;;;;;5054570;28;20069;-53
2021/12/01 09:13:25;;;;;;;3.67;2.08;;;;;;;;;;5081038;28;20094;-55
2021/12/01 09:15:53;;;;;;;3.53;1.95;;;;;;;;;;5065997;28;20052;-55
2021/12/01 09:18:19;;;;;;;2.58;1.80;;;;;;;;;;5066074;28;20032;-55
2021/12/01 09:20:45;;;;;;;3.05;2.08;;;;;;;;;;5065110;28;20024;-55
2021/12/01 09:23:12;;;;;;;2.90;1.60;;;;;;;;;;5063817;28;20090;-55
2021/12/01 09:25:38;;;;;;;2.42;1.85;;;;;;;;;;5066279;28;20077;-55
2021/12/01 09:28:05;;;;;;;3.45;1.75;;;;;;;;;;5065142;28;20029;-56
2021/12/01 09:30:31;;;;;;;2.25;1.52;;;;;;;;;;5065378;28;20037;-56
2021/12/01 09:32:57;;;;;;;1.98;1.33;;;;;;;;;;5074887;28;20604;-55
2021/12/01 09:35:24;;;;;;;1.58;1.20;;;;;;;;;;5065997;28;20413;-55
2021/12/01 09:37:50;;;;;;;2.20;1.40;;;;;;;;;;5066432;28;20566;-56
2021/12/01 09:40:17;;;;;;;3.00;1.67;;;;;;;;;;5065673;28;20091;-55
2021/12/01 09:42:54;;;;;;;2.97;1.42;;;;;;;;;;5066289;28;20115;-55
2021/12/01 09:45:21;;;;;;;3.28;1.92;;;;;;;;;;5065068;28;20025;-55
2021/12/01 09:47:48;;;;;;;4.88;2.60;;;;;;;;;;5065194;28;20040;-55
2021/12/01 09:50:15;;;;;;;6.03;2.67;;;;;;;;;;5065801;28;20021;-55
2021/12/01 09:52:42;;;;;;;7.10;4.07;;;;;;;;;;5066163;28;20020;-55
2021/12/01 09:55:08;;;;;;;7.72;3.63;;;;;;;;;;5063822;28;20055;-55
2021/12/01 09:57:35;;;;;;;7.10;3.92;;;;;;;;;;5063512;28;20032;-55
2021/12/01 10:00:01;;;;;;;7.90;3.83;;;;;;;;;;5082754;28;20108;-56
2021/12/01 10:02:27;;;;;;;7.95;3.75;;;;;;;;;;5065596;28;20040;-55
2021/12/01 10:04:53;;;;;;;6.45;3.70;;;;;;;;;;5064474;28;20032;-56
2021/12/01 10:07:21;;;;;;;8.48;3.92;;;;;;;;;;5065754;28;20028;-56
2021/12/01 10:09:50;;;;;;;8.07;4.45;;;;;;;;;;5065675;28;20025;-55
2021/12/01 10:12:17;;;;;;;9.05;4.03;;;;;;;;;;5065699;28;20021;-54
2021/12/01 10:14:47;;;;;;;5.68;3.60;;;;;;;;;;5064838;28;20064;-55
2021/12/01 10:17:13;;;;;;;7.78;4.28;;;;;;;;;;5065600;28;20039;-54
2021/12/01 10:19:40;;;;;;;15.57;10.43;;;;;;;;;;5065729;28;20038;-54
2021/12/01 10:22:12;;;;;;;13.50;7.78;;;;;;;;;;5066283;28;20506;-54
2021/12/01 10:24:41;;;;;;;10.93;6.20;;;;;;;;;;5064972;28;20733;-55
2021/12/01 10:27:12;;;;;;;11.77;5.60;;;;;;;;;;5066002;28;20020;-55
2021/12/01 10:29:43;;;;;;;12.70;5.35;;;;;;;;;;5063668;28;20095;-55
2021/12/01 10:32:09;;;;;;;7.15;4.00;;;;;;;;;;5063469;28;20032;-56
2021/12/01 10:34:36;;;;;;;8.75;4.45;;;;;;;;;;5067844;28;20494;-53
2021/12/01 10:37:08;;;;;;;7.20;3.58;;;;;;;;;;5065166;28;20052;-54
2021/12/01 10:39:36;;;;;;;7.00;3.50;;;;;;;;;;5065289;28;20096;-56
2021/12/01 10:42:09;;;;;;;3.55;2.90;;;;;;;;;;5048244;28;20032;-55
2021/12/01 10:44:36;;;;;;;4.22;3.00;;;;;;;;;;5063143;28;20101;-55
2021/12/01 10:47:12;;;;;;;3.00;2.15;;;;;;;;;;5063714;28;20450;-57
2021/12/01 10:49:44;;;;;;;3.97;3.17;;;;;;;;;;5054771;28;20504;-57
2021/12/01 10:52:29;;;;;;;4.50;3.17;;;;;;;;;;5044033;28;20032;-57
2021/12/01 10:55:04;;;;;;;3.67;2.55;;;;;;;;;;5058016;28;20028;-57
2021/12/01 10:57:30;;;;;;;2.80;2.05;;;;;;;;;;5066670;28;20059;-56
2021/12/01 10:59:57;;;;;;;2.28;1.70;;;;;;;;;;5066233;28;20024;-57
2021/12/01 11:02:23;;;;;;;1.60;1.50;;;;;;;;;;5064007;28;20032;-57
2021/12/01 11:04:51;;;;;;;2.95;1.67;;;;;;;;;;5066702;28;20465;-57
2021/12/01 11:07:24;;;;;;;2.33;1.50;;;;;;;;;;5060466;28;20490;-57
2021/12/01 11:10:08;;;;;;;3.75;1.83;;;;;;;;;;5065296;28;20445;-56
2021/12/01 11:12:35;;;;;;;3.35;2.25;;;;;;;;;;5067903;28;20032;-56
2021/12/01 11:15:22;;;;;;;4.10;1.85;;;;;;;;;;5066074;28;20021;-56
2021/12/01 11:17:50;;;;;;;2.45;1.83;;;;;;;;;;5065656;28;20053;-55
2021/12/01 11:20:34;;;;;;;2.88;1.92;;;;;;;;;;5067453;28;20028;-56
2021/12/01 11:23:01;;;;;;;;;;;;;;;;;;5068190;28;20028;-55
2021/12/01 11:25:28;;;;;;;3.20;2.08;;;;;;;;;;5068106;28;20861;-57
2021/12/01 11:27:55;;;;;;;3.72;2.10;;;;;;;;;;5066865;28;20028;-55
2021/12/01 11:30:23;;;;;;;3.22;2.00;;;;;;;;;;5065574;28;20098;-56
2021/12/01 11:32:49;;;;;;;3.47;2.30;;;;;;;;;;5066232;28;20078;-52
2021/12/01 11:35:15;;;;;;;3.17;2.38;;;;;;;;;;5065671;28;20035;-55
2021/12/01 11:37:41;;;;;;;2.75;2.10;;;;;;;;;;5076641;28;20024;-54
2021/12/01 11:40:08;;;;;;;3.35;2.05;;;;;;;;;;5067854;28;20399;-56
2021/12/01 11:42:34;;;;;;;2.60;1.77;;;;;;;;;;5076962;28;20035;-55
2021/12/01 11:45:00;;;;;;;2.85;1.77;;;;;;;;;;5076201;28;20107;-55
2021/12/01 11:47:26;;;;;;;2.47;1.55;;;;;;;;;;5066077;28;20032;-52
2021/12/01 11:49:55;;;;;;;5.25;2.33;;;;;;;;;;5067586;28;20507;-55
2021/12/01 11:52:27;;;;;;;4.93;1.95;;;;;;;;;;5066940;28;20024;-55
2021/12/01 11:54:54;;;;;;;3.55;2.35;;;;;;;;;;5067135;28;21021;-52
2021/12/01 11:57:20;;;;;;;2.85;2.08;;;;;;;;;;5065077;28;20028;-55
2021/12/01 11:59:47;;;;;;;4.68;2.47;;;;;;;;;;5057397;28;20033;-55
2021/12/01 12:02:16;;;;;;;3.60;2.42;;;;;;;;;;5067668;28;20020;-54
2021/12/01 12:04:47;;;;;;;2.95;2.13;;;;;;;;;;5052520;28;20024;-51
2021/12/01 12:07:13;;;;;;;3.78;2.35;;;;;;;;;;5060681;28;20108;-54
2021/12/01 12:09:39;;;;;;;3.42;2.22;;;;;;;;;;5064918;28;20151;-56
2021/12/01 12:12:13;;;;;;;3.10;2.25;;;;;;;;;;5057404;28;20082;-55
2021/12/01 12:14:45;;;;;;;4.30;2.30;;;;;;;;;;5048532;28;20494;-55
2021/12/01 12:17:13;;;;;;;5.03;2.50;;;;;;;;;;5060430;28;20086;-55
2021/12/01 12:19:45;;;;;;;3.95;2.13;;;;;;;;;;5072680;28;21985;-55
2021/12/01 12:22:12;;;;;;;4.45;2.30;;;;;;;;;;5075419;28;20032;-55
2021/12/01 12:24:50;;;;;;;4.65;2.03;;;;;;;;;;5077841;28;20075;-51
2021/12/01 12:27:30;;;;;;;3.80;2.40;;;;;;;;;;5067569;28;20025;-56
2021/12/01 12:29:58;;;;;;;5.60;2.63;;;;;;;;;;5065396;28;20039;-54
2021/12/01 12:32:29;;;;;;;3.92;2.28;;;;;;;;;;5069530;28;20447;-55
2021/12/01 12:34:56;;;;;;;2.75;2.00;;;;;;;;;;5068055;28;20021;-56
2021/12/01 12:37:24;;;;;;;4.22;2.20;;;;;;;;;;5062077;28;20092;-55
2021/12/01 12:39:52;;;;;;;3.47;2.40;;;;;;;;;;5056131;28;20028;-54
2021/12/01 12:42:19;;;;;;;4.75;2.08;;;;;;;;;;5065968;28;20755;-55
2021/12/01 12:44:46;;;;;;;5.75;2.22;;;;;;;;;;5067287;28;20040;-54
2021/12/01 12:47:26;;;;;;;7.15;3.40;;;;;;;;;;5066895;28;20029;-55
2021/12/01 12:49:53;;;;;;;6.32;3.13;;;;;;;;;;5067580;28;20028;-55
2021/12/01 12:52:25;;;;;;;7.20;3.58;;;;;;;;;;5067155;28;20559;-55
2021/12/01 12:54:51;;;;;;;6.65;3.38;;;;;;;;;;5072357;28;20033;-51
2021/12/01 12:57:17;;;;;;;6.43;3.10;;;;;;;;;;5065617;28;20039;-53
2021/12/01 12:59:44;;;;;;;5.00;2.60;;;;;;;;;;5067471;28;20021;-53
2021/12/01 13:02:10;;;;;;;4.82;2.58;;;;;;;;;;5057990;28;20559;-53
2021/12/01 13:04:52;;;;;;;4.22;2.65;;;;;;;;;;5060679;28;20030;-57
2021/12/01 13:07:34;;;;;;;2.97;2.00;;;;;;;;;;5066000;28;20463;-54
2021/12/01 13:10:04;;;;;;;4.30;2.40;;;;;;;;;;5067385;28;20043;-53
2021/12/01 13:12:30;;;;;;;4.90;2.20;;;;;;;;;;5060431;28;20040;-56
2021/12/01 13:14:56;;;;;;;4.70;2.33;;;;;;;;;;5077076;28;20418;-54
2021/12/01 13:17:23;;;;;;;5.03;2.42;;;;;;;;;;5087348;28;20105;-55
2021/12/01 13:19:49;;;;;;;4.80;2.10;;;;;;;;;;5067498;28;20486;-56
2021/12/01 13:22:15;;;;;;;5.13;2.50;;;;;;;;;;5065821;28;20085;-54
2021/12/01 13:24:41;;;;;;;5.63;2.30;;;;;;;;;;5066373;28;20601;-58
2021/12/01 13:27:07;;;;;;;4.30;2.25;;;;;;;;;;5064599;28;20039;-56
2021/12/01 13:29:35;;;;;;;3.97;1.90;;;;;;;;;;5073718;28;20017;-54
2021/12/01 13:32:01;;;;;;;4.28;1.95;;;;;;;;;;5065825;28;20027;-56
2021/12/01 13:34:33;;;;;;;2.78;1.90;;;;;;;;;;5065918;28;20522;-55
2021/12/01 13:37:05;;;;;;;3.30;1.90;;;;;;;;;;5067153;28;20608;-55
2021/12/01 13:39:32;;;;;;;4.40;2.05;;;;;;;;;;5060330;28;20028;-51
2021/12/01 13:42:04;;;;;;;3.35;1.70;;;;;;;;;;5066807;28;20036;-51
2021/12/01 14:03:04;;;;;;;3.70;2.67;;;;;;;;;;5044762;28;20060;-52
2021/12/01 14:05:30;;;;;;;4.60;2.60;;;;;;;;;;5058665;28;20511;-53
2021/12/01 14:08:01;;;;;;;3.22;2.50;;;;;;;;;;5082978;28;20055;-53
2021/12/01 14:10:33;;;;;;;4.47;2.70;;;;;;;;;;5086645;28;20043;-54
2021/12/01 14:13:00;;;;;;;5.20;3.10;;;;;;;;;;5063366;28;20399;-53
2021/12/01 14:15:27;;;;;;;5.00;3.00;;;;;;;;;;5065773;28;20024;-53
2021/12/01 14:17:53;;;;;;;2.97;2.00;;;;;;;;;;5068188;28;20028;-54
2021/12/01 14:20:19;;;;;;;2.88;1.80;;;;;;;;;;5068080;28;20024;-54
2021/12/01 14:22:46;;;;;;;2.95;1.98;;;;;;;;;;5068203;28;20039;-52
2021/12/01 14:25:14;;;;;;;1.98;1.60;;;;;;;;;;5068364;28;20117;-52
2021/12/01 14:27:41;;;;;;;2.33;1.58;;;;;;;;;;5067369;28;20028;-53
2021/12/01 14:30:10;;;;;;;2.28;1.63;;;;;;;;;;5067504;28;20120;-51
2021/12/01 14:32:37;;;;;;;2.15;1.63;;;;;;;;;;5069950;28;20422;-53
2021/12/01 14:35:04;;;;;;;2.63;1.65;;;;;;;;;;5069968;28;20021;-52
2021/12/01 14:37:31;;;;;;;5.90;1.98;;;;;;;;;;5070782;28;20033;-50
2021/12/01 14:40:11;;;;;;;2.35;1.45;;;;;;;;;;5071220;28;20039;-50
2021/12/01 14:42:43;;;;;;;2.30;1.45;;;;;;;;;;5069309;28;20033;-49
2021/12/01 14:45:09;;;;;;;2.78;1.23;;;;;;;;;;5070986;28;20033;-52
2021/12/01 14:47:35;;;;;;;5.22;1.30;;;;;;;;;;5070238;28;20024;-50
2021/12/01 14:50:02;;;;;;;1.90;1.25;;;;;;;;;;5070872;28;20059;-50
2021/12/01 14:52:32;;;;;;;2.03;1.25;;;;;;;;;;5070539;28;20020;-54
2021/12/01 14:55:00;;;;;;;1.70;1.20;;;;;;;;;;5070751;28;20029;-54
2021/12/01 14:57:27;;;;;;;3.00;1.75;;;;;;;;;;5070347;28;20025;-53
2021/12/01 14:59:55;;;;;;;1.63;1.40;;;;;;;;;;5070811;28;20028;-53
2021/12/01 15:02:24;;;;;;;2.25;1.50;;;;;;;;;;5069946;28;20029;-54
2021/12/01 15:05:05;;;;;;;3.03;1.50;;;;;;;;;;5069300;28;20039;-53